createdAt,value
2018-11-21T00:01:12.663Z,29.00
2018-11-21T00:03:40.841Z,28.50
2018-11-21T00:06:13.711Z,29.33
2018-11-21T00:08:43.348Z,27.67
2018-11-21T00:11:14.276Z,27.50
2018-11-21T00:13:42.493Z,27.20
2018-11-21T00:16:10.777Z,28.53
2018-11-21T00:19:00.769Z,30.77
2018-11-21T00:21:30.603Z,26.80
2018-11-21T00:24:07.438Z,30.57
2018-11-21T00:26:36.552Z,27.80
2018-11-21T00:29:05.823Z,25.60
2018-11-21T00:31:34.033Z,24.87
2018-11-21T00:34:02.189Z,27.10
2018-11-21T00:36:30.388Z,28.93
2018-11-21T00:38:58.590Z,24.07
2018-11-21T00:41:26.800Z,25.50
2018-11-21T00:46:54.537Z,27.00
2018-11-21T00:49:23.727Z,28.43
2018-11-21T00:52:10.025Z,31.97
2018-11-21T00:55:03.800Z,25.67
2018-11-21T00:57:43.751Z,25.63
2018-11-21T01:00:12.667Z,27.50
2018-11-21T01:02:41.156Z,28.93
2018-11-21T01:05:10.229Z,26.93
2018-11-21T01:07:52.729Z,23.97
2018-11-21T01:10:27.656Z,25.43
2018-11-21T01:13:03.636Z,27.10
2018-11-21T01:15:47.562Z,26.37
2018-11-21T01:18:20.900Z,27.00
2018-11-21T01:20:50.033Z,26.27
2018-11-21T01:23:20.189Z,26.67
2018-11-21T01:25:48.809Z,25.87
2018-11-21T01:28:17.001Z,28.07
2018-11-21T01:30:45.140Z,29.23
2018-11-21T01:33:15.154Z,29.10
2018-11-21T01:36:01.628Z,26.13
2018-11-21T01:38:36.874Z,26.13
2018-11-21T01:44:17.455Z,24.57
2018-11-21T01:46:57.712Z,28.50
2018-11-21T01:49:59.856Z,25.60
2018-11-21T01:52:28.048Z,27.60
2018-11-21T01:55:08.435Z,27.73
2018-11-21T01:57:47.047Z,28.70
2018-11-21T02:00:29.840Z,29.77
2018-11-21T02:03:20.852Z,27.37
2018-11-21T02:05:50.574Z,30.10
2018-11-21T02:08:24.686Z,28.50
2018-11-21T02:11:00.310Z,32.27
2018-11-21T02:13:33.449Z,29.73
2018-11-21T02:16:12.458Z,32.40
2018-11-21T02:18:55.384Z,31.07
2018-11-21T02:21:51.368Z,28.83
2018-11-21T02:24:22.242Z,29.50
2018-11-21T02:26:55.639Z,32.70
2018-11-21T02:29:34.296Z,31.63
2018-11-21T02:32:03.247Z,32.77
2018-11-21T02:34:38.751Z,34.23
2018-11-21T02:37:19.700Z,35.07
2018-11-21T02:39:50.615Z,33.20
2018-11-21T02:42:19.133Z,32.67
2018-11-21T02:44:47.309Z,32.00
2018-11-21T02:47:16.485Z,33.63
2018-11-21T02:49:44.671Z,35.93
2018-11-21T02:52:24.514Z,33.43
2018-11-21T02:55:04.733Z,38.23
2018-11-21T02:57:44.739Z,34.07
2018-11-21T03:00:24.620Z,35.30
2018-11-21T04:23:36.547Z,37.80
2018-11-21T04:26:04.799Z,45.25
2018-11-21T04:28:32.951Z,44.40
2018-11-21T04:31:01.658Z,39.60
2018-11-21T04:33:30.091Z,37.90
2018-11-21T04:35:58.245Z,38.93
2018-11-21T04:38:26.447Z,42.73
2018-11-21T04:40:54.596Z,40.63
2018-11-21T04:43:22.778Z,39.70
2018-11-21T04:45:50.983Z,41.47
2018-11-21T04:48:19.153Z,41.10
2018-11-21T04:50:47.323Z,40.67
2018-11-21T04:53:15.524Z,41.20
2018-11-21T04:55:43.704Z,40.57
2018-11-21T04:58:11.891Z,39.87
2018-11-21T05:00:40.104Z,41.83
2018-11-21T05:03:08.582Z,39.93
2018-11-21T05:05:36.768Z,40.43
2018-11-21T05:08:05.098Z,40.93
2018-11-21T05:10:33.285Z,39.70
2018-11-21T05:13:01.462Z,39.40
2018-11-21T05:15:30.629Z,42.97
2018-11-21T05:17:58.773Z,42.30
2018-11-21T05:20:26.980Z,44.77
2018-11-21T05:22:57.590Z,44.20
2018-11-21T05:25:25.807Z,43.70
2018-11-21T05:27:54.017Z,43.33
2018-11-21T05:30:22.167Z,38.50
2018-11-21T05:32:50.320Z,42.23
2018-11-21T05:35:19.434Z,43.37
2018-11-21T05:37:47.729Z,38.23
2018-11-21T05:40:15.912Z,40.17
2018-11-21T05:42:44.074Z,37.37
2018-11-21T05:45:13.106Z,41.47
2018-11-21T05:47:41.285Z,44.23
2018-11-21T05:50:11.244Z,38.97
2018-11-21T05:52:39.485Z,37.10
2018-11-21T05:55:07.660Z,40.40
2018-11-21T05:57:36.214Z,37.20
2018-11-21T06:00:05.822Z,42.73
2018-11-21T06:02:34.013Z,44.23
2018-11-21T06:05:02.169Z,38.63
2018-11-21T06:07:30.363Z,41.90
2018-11-21T06:09:58.580Z,39.63
2018-11-21T06:12:26.747Z,43.63
2018-11-21T06:14:54.914Z,39.47
2018-11-21T06:17:23.061Z,38.30
2018-11-21T06:19:51.201Z,41.10
2018-11-21T06:22:19.403Z,41.57
2018-11-21T06:24:47.616Z,42.17
2018-11-21T06:27:15.780Z,41.67
2018-11-21T06:29:43.962Z,45.80
2018-11-21T06:32:12.159Z,42.80
2018-11-21T06:34:40.281Z,41.10
2018-11-21T06:37:08.468Z,45.95
2018-11-21T06:39:36.633Z,41.67
2018-11-21T06:42:05.075Z,41.57
2018-11-21T06:44:33.408Z,43.07
2018-11-21T06:47:01.559Z,42.40
2018-11-21T06:49:29.715Z,45.10
2018-11-21T06:51:57.908Z,47.17
2018-11-21T06:54:26.048Z,47.40
2018-11-21T06:56:54.186Z,42.23
2018-11-21T06:59:22.427Z,44.77
2018-11-21T07:01:50.606Z,42.43
2018-11-21T07:04:18.762Z,44.13
2018-11-21T07:06:46.955Z,41.10
2018-11-21T07:09:15.126Z,43.27
2018-11-21T07:11:43.298Z,42.17
2018-11-21T07:14:11.494Z,44.47
2018-11-21T07:16:40.443Z,46.20
2018-11-21T07:19:08.665Z,42.70
2018-11-21T07:21:38.110Z,47.87
2018-11-21T11:41:21.604Z,41.27
2018-11-21T19:23:24.457Z,48.10
2018-11-21T19:25:52.700Z,47.37
2018-11-21T19:28:20.872Z,48.23
2018-11-21T19:30:49.397Z,50.87
2018-11-21T19:33:17.582Z,49.77
2018-11-21T19:35:45.942Z,51.37
2018-11-21T19:38:14.088Z,45.33
2018-11-21T19:40:42.329Z,49.50
2018-11-21T19:43:10.608Z,47.57
2018-11-21T19:45:39.218Z,49.57
2018-11-21T19:48:07.394Z,56.87
2018-11-21T19:50:35.682Z,57.95
2018-11-21T19:53:04.011Z,52.43
2018-11-21T19:55:33.110Z,50.43
2018-11-21T19:58:01.349Z,52.63
2018-11-21T20:00:31.005Z,54.13
2018-11-21T20:02:59.243Z,56.50
2018-11-21T20:05:27.431Z,50.93
2018-11-21T20:07:55.706Z,47.77
2018-11-21T20:10:24.170Z,50.80
2018-11-21T20:12:52.361Z,52.80
2018-11-21T20:15:22.202Z,54.85
2018-11-21T20:17:52.083Z,53.17
2018-11-21T20:20:21.033Z,49.57
2018-11-21T20:22:49.870Z,53.97
2018-11-21T20:25:19.356Z,50.03
2018-11-21T20:27:48.498Z,48.97
2018-11-21T20:30:18.559Z,48.33
2018-11-21T20:32:46.750Z,47.70
2018-11-21T20:35:15.467Z,48.27
2018-11-21T20:37:44.209Z,45.97
2018-11-21T20:40:26.644Z,49.67
2018-11-21T20:42:54.787Z,52.47
2018-11-21T20:45:24.371Z,44.30
2018-11-21T20:47:53.638Z,49.10
2018-11-21T20:50:22.274Z,46.60
2018-11-21T20:52:50.761Z,50.20
2018-11-21T20:55:20.373Z,45.77
2018-11-21T20:57:48.606Z,45.33
2018-11-21T21:00:18.248Z,44.57
2018-11-21T21:02:46.635Z,49.57
2018-11-21T21:05:16.311Z,46.67
2018-11-21T21:07:45.011Z,48.53
2018-11-21T21:10:14.681Z,46.13
2018-11-21T21:12:42.946Z,45.63
2018-11-21T21:15:11.481Z,47.60
2018-11-21T21:17:41.469Z,49.33
2018-11-21T21:20:10.788Z,48.87
2018-11-21T21:22:38.994Z,47.93
2018-11-21T21:25:12.936Z,46.13
2018-11-21T21:27:41.323Z,47.47
2018-11-21T21:30:26.160Z,48.80
2018-11-21T21:32:54.383Z,44.63
2018-11-21T21:35:23.545Z,45.63
2018-11-21T21:37:51.772Z,49.30
2018-11-21T21:40:20.733Z,45.43
2018-11-21T21:42:48.962Z,48.43
2018-11-21T21:45:18.878Z,48.37
2018-11-21T21:47:47.405Z,51.53
2018-11-21T21:50:16.780Z,46.47
2018-11-21T21:52:44.938Z,47.13
2018-11-21T21:55:13.836Z,44.97
2018-11-21T21:57:42.028Z,44.83
2018-11-21T22:00:15.190Z,44.00
2018-11-21T22:02:43.386Z,48.43
2018-11-21T22:05:12.032Z,45.73
2018-11-21T22:07:40.229Z,45.00
2018-11-21T22:10:09.261Z,50.73
2018-11-21T22:12:37.438Z,47.50
2018-11-21T22:15:12.823Z,44.80
2018-11-21T22:17:41.643Z,47.63
2018-11-21T22:20:09.825Z,45.07
2018-11-21T22:22:38.014Z,49.70
2018-11-21T22:25:06.275Z,45.83
2018-11-21T22:27:34.470Z,47.00
2018-11-21T22:30:02.670Z,45.83
2018-11-21T22:32:30.891Z,49.87
2018-11-21T22:34:59.099Z,47.17
2018-11-21T22:37:27.273Z,48.17
2018-11-21T22:39:55.522Z,47.43
2018-11-21T22:42:23.699Z,47.97
2018-11-21T22:44:51.877Z,47.50
2018-11-21T22:47:20.703Z,46.73
2018-11-21T22:49:48.915Z,45.73
2018-11-21T22:52:17.100Z,45.03
2018-11-21T22:54:45.413Z,48.03
2018-11-21T22:57:13.698Z,45.97
2018-11-21T22:59:41.856Z,49.13
2018-11-21T23:02:10.077Z,46.00
2018-11-21T23:04:38.254Z,47.57
2018-11-21T23:07:06.808Z,46.67
2018-11-21T23:09:35.006Z,47.57
2018-11-21T23:12:03.201Z,51.30
2018-11-21T23:14:31.376Z,46.40
2018-11-21T23:16:59.596Z,50.27
2018-11-21T23:19:27.733Z,48.80
2018-11-21T23:21:55.988Z,48.17
2018-11-21T23:24:24.204Z,48.07
2018-11-21T23:26:52.480Z,51.00
2018-11-21T23:29:20.663Z,49.00
2018-11-21T23:31:48.886Z,50.30
2018-11-21T23:34:17.062Z,50.50
2018-11-21T23:36:45.253Z,46.53
2018-11-21T23:39:13.502Z,50.77
2018-11-21T23:41:41.694Z,47.20
2018-11-21T23:44:09.917Z,47.63
2018-11-21T23:46:38.405Z,49.63
2018-11-21T23:49:06.629Z,48.33
2018-11-21T23:51:34.852Z,49.17
2018-11-21T23:54:22.481Z,50.57
2018-11-21T23:57:16.164Z,49.83
